Time;durP1;ratioP1;P1;durP2;ratioP2;P2;SDS_P1;SDS_P2;PMS_P1;PMS_P2;Temp;Humidity;BMP_temperature;BMP_pressure;BME280_temperature;BME280_humidity;BME280_pressure;Samples;Min_cycle;Max_cycle;Signal;HPM_P1;HPM_P2
2020/12/14 00:00:21;;;;;;;15.30;10.40;;;6.40;74.00;;;;;;5022948;28;20373;-83
2020/12/14 00:02:47;;;;;;;14.33;10.40;;;6.50;74.30;;;;;;5009779;28;20025;-83
2020/12/14 00:05:14;;;;;;;14.13;10.60;;;6.60;73.60;;;;;;5009728;28;20172;-83
2020/12/14 00:07:40;;;;;;;13.97;10.07;;;6.60;73.30;;;;;;5023799;28;20421;-83
2020/12/14 00:10:08;;;;;;;15.33;10.60;;;6.70;73.50;;;;;;5026571;28;20081;-84
2020/12/14 00:12:34;;;;;;;16.80;11.83;;;6.80;73.30;;;;;;5015054;28;20038;-84
2020/12/14 00:15:00;;;;;;;14.07;10.07;;;6.80;73.00;;;;;;5029261;28;20030;-83
2020/12/14 00:17:26;;;;;;;12.93;9.23;;;6.80;73.20;;;;;;5016696;28;20026;-83
2020/12/14 00:19:51;;;;;;;11.67;8.60;;;6.80;73.10;;;;;;5018287;28;20568;-83
2020/12/14 00:22:17;;;;;;;9.77;7.43;;;6.90;72.90;;;;;;5022636;28;20380;-84
2020/12/14 00:24:43;;;;;;;10.03;7.47;;;6.90;72.90;;;;;;5020766;28;20030;-84
2020/12/14 00:27:09;;;;;;;9.77;7.20;;;6.90;72.80;;;;;;5021523;28;20042;-83
2020/12/14 00:29:35;;;;;;;13.80;9.13;;;6.90;72.20;;;;;;5013854;28;20064;-83
2020/12/14 00:32:00;;;;;;;10.63;7.50;;;6.80;72.10;;;;;;5019268;28;20036;-83
2020/12/14 00:34:26;;;;;;;10.90;8.07;;;6.70;72.20;;;;;;5012869;28;20500;-83
2020/12/14 00:36:52;;;;;;;7.63;5.40;;;6.60;72.20;;;;;;5025138;28;20048;-83
2020/12/14 00:39:18;;;;;;;9.50;5.57;;;6.50;72.40;;;;;;5029125;28;20029;-83
2020/12/14 00:41:44;;;;;;;8.83;5.37;;;6.60;72.80;;;;;;5022481;28;20060;-83
2020/12/14 00:44:09;;;;;;;8.57;6.63;;;6.70;72.70;;;;;;5031940;28;20483;-83
2020/12/14 00:46:36;;;;;;;8.27;5.13;;;6.70;72.10;;;;;;5026120;28;20112;-83
2020/12/14 00:49:02;;;;;;;9.47;5.10;;;6.70;72.00;;;;;;5009597;28;20113;-83
2020/12/14 00:51:28;;;;;;;7.70;5.53;;;6.60;72.10;;;;;;5026644;28;20424;-83
2020/12/14 00:53:55;;;;;;;7.60;5.27;;;6.50;71.70;;;;;;5018977;28;20061;-83
2020/12/14 00:56:21;;;;;;;10.87;7.83;;;6.50;71.80;;;;;;5024467;28;20022;-83
2020/12/14 00:58:47;;;;;;;8.90;6.33;;;6.40;71.70;;;;;;5029800;28;20072;-83
2020/12/14 01:01:14;;;;;;;7.40;5.53;;;6.20;71.70;;;;;;5023816;28;20022;-83
2020/12/14 01:03:40;;;;;;;7.33;5.57;;;6.30;72.00;;;;;;5029403;28;20064;-83
2020/12/14 01:06:06;;;;;;;6.80;4.90;;;6.20;72.10;;;;;;5029448;28;20025;-83
2020/12/14 01:08:33;;;;;;;9.03;4.90;;;6.20;71.90;;;;;;5029741;28;20025;-83
2020/12/14 01:10:59;;;;;;;6.37;4.93;;;6.10;71.70;;;;;;5017135;28;20030;-83
2020/12/14 01:13:25;;;;;;;7.50;5.47;;;6.10;71.90;;;;;;5028545;28;20472;-83
2020/12/14 01:15:50;;;;;;;7.93;5.37;;;6.00;71.90;;;;;;5029139;28;20040;-83
2020/12/14 01:18:16;;;;;;;5.00;4.00;;;6.00;72.20;;;;;;5019063;28;20503;-83
2020/12/14 01:20:42;;;;;;;9.47;7.10;;;6.00;72.10;;;;;;5028735;28;20380;-82
2020/12/14 01:23:08;;;;;;;9.83;6.60;;;6.00;72.00;;;;;;5022369;28;20026;-84
2020/12/14 01:25:34;;;;;;;8.50;5.43;;;5.90;72.00;;;;;;5013117;28;20026;-83
2020/12/14 01:28:00;;;;;;;7.63;5.13;;;5.80;72.30;;;;;;5019607;28;20081;-83
2020/12/14 01:30:26;;;;;;;7.23;4.87;;;5.80;72.30;;;;;;5028670;28;20383;-83
2020/12/14 01:32:53;;;;;;;11.50;6.40;;;5.70;72.00;;;;;;5028242;28;20480;-83
2020/12/14 01:35:19;;;;;;;8.60;5.57;;;5.60;72.20;;;;;;5025033;28;20034;-83
2020/12/14 01:37:45;;;;;;;7.77;5.07;;;5.60;72.20;;;;;;5020283;28;20419;-83
2020/12/14 01:40:11;;;;;;;11.50;5.37;;;5.50;72.10;;;;;;5032927;28;20051;-83
2020/12/14 01:42:41;;;;;;;11.03;6.40;;;5.50;72.60;;;;;;5032946;28;20472;-83
2020/12/14 01:45:08;;;;;;;12.57;6.97;;;5.60;72.70;;;;;;5014912;28;20809;-83
2020/12/14 01:47:38;;;;;;;13.10;6.90;;;5.50;72.50;;;;;;5022833;28;20026;-83
2020/12/14 01:50:06;;;;;;;10.37;6.77;;;5.70;73.10;;;;;;5013366;28;20445;-83
2020/12/14 01:52:32;;;;;;;10.13;7.50;;;5.80;72.60;;;;;;5030512;28;20819;-83
2020/12/14 01:55:00;;;;;;;14.13;9.40;;;5.70;72.10;;;;;;5015788;28;20084;-83
2020/12/14 01:57:27;;;;;;;10.07;6.77;;;5.60;72.20;;;;;;5027672;28;20021;-83
2020/12/14 01:59:56;;;;;;;9.53;5.97;;;5.70;72.60;;;;;;5033088;28;20018;-83
2020/12/14 02:02:22;;;;;;;7.80;5.20;;;5.70;72.70;;;;;;5025387;28;20061;-83
2020/12/14 02:04:47;;;;;;;7.57;5.33;;;5.70;72.80;;;;;;5016568;28;20069;-83
2020/12/14 02:07:13;;;;;;;8.70;6.37;;;5.60;72.50;;;;;;5029627;28;20041;-83
2020/12/14 02:09:39;;;;;;;7.00;4.70;;;5.60;72.60;;;;;;5029990;28;20108;-83
2020/12/14 02:12:04;;;;;;;7.47;4.50;;;5.60;72.40;;;;;;5013179;28;20777;-84
2020/12/14 02:14:30;;;;;;;8.53;5.30;;;5.50;72.30;;;;;;5026594;28;20133;-83
2020/12/14 02:16:56;;;;;;;8.30;5.23;;;5.60;72.30;;;;;;5031144;28;20423;-83
2020/12/14 02:19:22;;;;;;;8.30;5.50;;;5.50;72.60;;;;;;5030686;28;20025;-84
2020/12/14 02:21:50;;;;;;;6.60;5.00;;;5.50;72.50;;;;;;5031852;28;20147;-83
2020/12/14 02:24:17;;;;;;;7.10;5.17;;;5.50;72.70;;;;;;5023157;28;20053;-83
2020/12/14 02:26:48;;;;;;;10.37;5.77;;;5.50;72.80;;;;;;5025720;28;20029;-83
2020/12/14 02:29:15;;;;;;;9.90;6.80;;;5.50;72.80;;;;;;5018185;28;20396;-83
2020/12/14 02:31:41;;;;;;;10.30;6.60;;;5.50;72.70;;;;;;5021743;28;20034;-84
2020/12/14 02:34:07;;;;;;;10.97;7.47;;;5.50;72.70;;;;;;5030143;28;20033;-84
2020/12/14 02:36:33;;;;;;;11.50;7.90;;;5.50;72.60;;;;;;5021963;28;20484;-83
2020/12/14 02:38:59;;;;;;;12.33;8.03;;;5.30;72.50;;;;;;5027583;28;20028;-83
2020/12/14 02:41:24;;;;;;;11.53;7.70;;;5.20;73.20;;;;;;5023211;28;20026;-83
2020/12/14 02:43:50;;;;;;;13.07;8.60;;;5.20;73.20;;;;;;5020266;28;20412;-83
2020/12/14 02:46:16;;;;;;;11.57;7.50;;;5.30;73.50;;;;;;5025268;28;20084;-83
2020/12/14 02:48:41;;;;;;;10.30;7.40;;;5.40;73.40;;;;;;5025706;28;20025;-83
2020/12/14 02:51:07;;;;;;;10.67;7.00;;;5.30;73.20;;;;;;5020996;28;20025;-83
2020/12/14 02:53:33;;;;;;;12.47;8.27;;;5.30;73.30;;;;;;5030712;28;20018;-83
2020/12/14 02:55:58;;;;;;;11.43;7.27;;;5.20;73.30;;;;;;5030659;28;20056;-84
2020/12/14 02:58:24;;;;;;;10.10;7.57;;;5.30;73.40;;;;;;5030353;28;20082;-83
2020/12/14 03:00:50;;;;;;;10.60;7.17;;;5.20;73.30;;;;;;5041166;28;20036;-83
2020/12/14 03:03:15;;;;;;;11.17;7.93;;;5.30;73.40;;;;;;5024436;28;20022;-84
2020/12/14 03:05:41;;;;;;;12.17;7.37;;;5.30;73.00;;;;;;5031201;28;20069;-83
2020/12/14 03:08:07;;;;;;;12.10;7.13;;;5.30;73.30;;;;;;5030477;28;20063;-83
2020/12/14 03:10:32;;;;;;;9.20;6.60;;;5.30;73.20;;;;;;5041484;28;20395;-83
2020/12/14 03:12:58;;;;;;;10.03;6.80;;;5.20;73.10;;;;;;5026682;28;20034;-83
2020/12/14 03:15:24;;;;;;;11.13;7.07;;;5.30;73.50;;;;;;5020490;28;20066;-83
2020/12/14 03:17:49;;;;;;;10.57;7.30;;;5.30;73.40;;;;;;5027387;28;20042;-83
2020/12/14 03:20:15;;;;;;;8.53;5.77;;;5.30;73.60;;;;;;5021473;28;20034;-83
2020/12/14 03:22:41;;;;;;;8.60;5.83;;;5.20;73.10;;;;;;5031690;28;20121;-83
2020/12/14 03:25:07;;;;;;;9.13;6.00;;;5.20;73.10;;;;;;5030390;28;20033;-83
2020/12/14 03:27:32;;;;;;;7.07;5.03;;;5.20;73.20;;;;;;5029781;28;20033;-83
2020/12/14 03:29:58;;;;;;;13.47;7.87;;;5.20;73.00;;;;;;5031240;28;20029;-84
2020/12/14 03:32:24;;;;;;;14.37;7.93;;;5.10;73.00;;;;;;5023875;28;20030;-84
2020/12/14 03:34:49;;;;;;;13.40;9.80;;;5.10;72.90;;;;;;5016402;28;20025;-83
2020/12/14 03:37:15;;;;;;;10.90;7.03;;;5.10;72.80;;;;;;5012665;28;20026;-83
2020/12/14 03:39:41;;;;;;;10.07;6.73;;;5.00;72.70;;;;;;5024675;28;20026;-83
2020/12/14 03:42:06;;;;;;;11.43;6.40;;;4.90;72.70;;;;;;5016033;28;20493;-83
2020/12/14 03:44:32;;;;;;;11.53;6.77;;;4.80;73.20;;;;;;5021992;28;20033;-84
2020/12/14 03:46:58;;;;;;;12.17;7.87;;;4.80;73.30;;;;;;5013012;28;20030;-83
2020/12/14 03:49:23;;;;;;;11.30;7.07;;;4.80;73.40;;;;;;5028643;28;20026;-84
2020/12/14 03:51:49;;;;;;;10.37;6.40;;;4.80;73.40;;;;;;5018671;28;20076;-84
2020/12/14 03:54:14;;;;;;;9.20;6.53;;;4.90;73.40;;;;;;5010965;28;20176;-83
2020/12/14 03:56:40;;;;;;;11.97;6.93;;;4.90;73.10;;;;;;5010830;28;20017;-83
2020/12/14 03:59:06;;;;;;;9.00;6.00;;;4.80;72.80;;;;;;5028049;28;20017;-84
2020/12/14 04:01:31;;;;;;;11.13;7.43;;;4.80;73.10;;;;;;5026710;28;20029;-84
2020/12/14 04:03:57;;;;;;;10.93;6.10;;;4.70;73.00;;;;;;5030244;28;20025;-84
2020/12/14 04:06:25;;;;;;;10.73;6.47;;;4.70;73.10;;;;;;5029659;28;20018;-84
2020/12/14 04:08:52;;;;;;;10.37;6.47;;;4.80;73.10;;;;;;5018750;28;20040;-84
2020/12/14 04:11:18;;;;;;;10.33;6.07;;;4.80;72.90;;;;;;5010771;28;20026;-85
2020/12/14 04:13:44;;;;;;;22.50;6.63;;;4.70;72.90;;;;;;5014359;28;20391;-85
2020/12/14 04:16:10;;;;;;;8.03;6.03;;;4.70;72.70;;;;;;5029245;28;20040;-84
2020/12/14 04:18:37;;;;;;;8.67;6.00;;;4.70;72.80;;;;;;5017781;28;20041;-85
2020/12/14 04:21:04;;;;;;;15.20;8.23;;;4.60;73.00;;;;;;5023129;28;20022;-84
2020/12/14 04:23:29;;;;;;;13.00;8.07;;;4.50;73.20;;;;;;5020957;28;20025;-84
2020/12/14 04:25:56;;;;;;;13.10;8.40;;;4.50;73.50;;;;;;5031092;28;20113;-84
2020/12/14 04:28:22;;;;;;;15.07;8.57;;;4.50;73.40;;;;;;5026819;28;20046;-84
2020/12/14 04:30:49;;;;;;;16.30;9.00;;;4.60;73.60;;;;;;5016650;28;20033;-84
2020/12/14 04:33:14;;;;;;;14.43;9.53;;;4.60;73.50;;;;;;5029777;28;20029;-85
2020/12/14 04:35:40;;;;;;;14.20;9.50;;;4.70;73.40;;;;;;5025011;28;20025;-85
2020/12/14 04:38:06;;;;;;;10.27;7.87;;;4.70;73.40;;;;;;5045611;28;20124;-84
2020/12/14 04:40:32;;;;;;;8.20;5.20;;;4.70;73.50;;;;;;5029609;28;20041;-84
2020/12/14 04:42:59;;;;;;;8.83;5.70;;;4.70;73.40;;;;;;5025131;28;20078;-84
2020/12/14 04:45:26;;;;;;;10.17;5.97;;;4.70;73.20;;;;;;5025904;28;20526;-84
2020/12/14 04:47:57;;;;;;;10.73;6.60;;;4.70;73.00;;;;;;5018638;28;20071;-84
2020/12/14 04:50:24;;;;;;;9.17;5.83;;;4.60;72.70;;;;;;5030094;28;20036;-83
2020/12/14 04:52:51;;;;;;;11.90;7.40;;;4.60;73.10;;;;;;5029708;28;20112;-83
2020/12/14 04:55:23;;;;;;;12.17;7.30;;;4.60;72.90;;;;;;5017296;28;20045;-83
2020/12/14 04:57:50;;;;;;;11.83;7.53;;;4.40;73.10;;;;;;5030781;28;20029;-83
2020/12/14 05:00:17;;;;;;;12.27;6.83;;;4.40;73.70;;;;;;5036194;28;20078;-83
2020/12/14 05:02:43;;;;;;;9.90;6.43;;;4.40;73.60;;;;;;5032622;28;20430;-83
2020/12/14 05:05:13;;;;;;;10.40;6.97;;;4.40;73.60;;;;;;5017220;28;20029;-83
2020/12/14 05:07:44;;;;;;;11.03;6.53;;;4.40;73.60;;;;;;5032058;28;20056;-83
2020/12/14 05:10:13;;;;;;;11.60;7.33;;;4.30;73.80;;;;;;5033796;28;20053;-83
2020/12/14 05:12:44;;;;;;;11.10;7.33;;;4.30;73.90;;;;;;5015696;28;20025;-83
2020/12/14 05:15:17;;;;;;;14.57;8.60;;;4.20;73.80;;;;;;5021957;28;20026;-84
2020/12/14 05:17:43;;;;;;;12.50;8.00;;;4.20;74.20;;;;;;5031364;28;20486;-83
2020/12/14 05:20:14;;;;;;;11.20;7.27;;;4.30;74.50;;;;;;5032456;28;20037;-83
2020/12/14 05:22:54;;;;;;;12.00;7.17;;;4.30;74.10;;;;;;5026950;28;20036;-84
2020/12/14 05:25:20;;;;;;;12.17;7.83;;;4.20;74.10;;;;;;5013692;28;20075;-84
2020/12/14 05:27:46;;;;;;;10.10;5.83;;;4.30;74.20;;;;;;5015742;28;20026;-83
2020/12/14 05:30:15;;;;;;;10.17;6.70;;;4.30;73.90;;;;;;5027768;28;20070;-83
2020/12/14 05:32:41;;;;;;;12.30;8.13;;;4.20;74.00;;;;;;5016088;28;20029;-83
2020/12/14 05:35:11;;;;;;;9.50;6.77;;;4.30;74.00;;;;;;5022323;28;20087;-83
2020/12/14 05:37:38;;;;;;;11.47;6.47;;;4.30;74.00;;;;;;5023938;28;20032;-83
2020/12/14 05:40:11;;;;;;;9.53;7.10;;;4.40;74.20;;;;;;5048293;28;20501;-83
2020/12/14 05:42:41;;;;;;;10.80;6.43;;;4.40;73.80;;;;;;5028258;28;20046;-83
2020/12/14 05:45:11;;;;;;;9.83;6.83;;;4.40;73.60;;;;;;5014819;28;20033;-83
2020/12/14 05:47:41;;;;;;;11.40;6.93;;;4.40;73.50;;;;;;5033068;28;20025;-83
2020/12/14 05:50:09;;;;;;;11.30;7.90;;;4.40;73.20;;;;;;5032328;28;20503;-83
2020/12/14 05:52:40;;;;;;;13.23;8.57;;;4.30;73.30;;;;;;5032498;28;20056;-83
2020/12/14 05:55:09;;;;;;;12.27;7.63;;;4.30;73.80;;;;;;5023199;28;20381;-83
2020/12/14 05:57:38;;;;;;;9.80;7.07;;;4.30;73.70;;;;;;5016328;28;20080;-83
2020/12/14 06:00:11;;;;;;;15.47;9.57;;;4.30;73.80;;;;;;5021044;28;20033;-83
2020/12/14 06:02:37;;;;;;;25.80;14.93;;;4.30;73.70;;;;;;5029203;28;20049;-84
2020/12/14 06:05:07;;;;;;;18.23;10.70;;;4.20;73.50;;;;;;5030044;28;20028;-83
2020/12/14 06:07:34;;;;;;;15.90;10.07;;;4.20;73.40;;;;;;5011762;28;20069;-83
2020/12/14 06:10:13;;;;;;;14.07;9.10;;;4.10;73.40;;;;;;5026095;28;20026;-83
2020/12/14 06:12:47;;;;;;;13.07;7.93;;;4.10;73.50;;;;;;5030245;28;20607;-83
2020/12/14 06:15:15;;;;;;;15.00;9.80;;;4.20;73.90;;;;;;5032520;28;20024;-83
2020/12/14 06:17:41;;;;;;;17.23;10.90;;;4.20;73.50;;;;;;5033113;28;20600;-83
2020/12/14 06:20:17;;;;;;;12.80;8.60;;;4.20;73.30;;;;;;5029877;28;20033;-83
2020/12/14 06:22:46;;;;;;;19.67;12.23;;;4.20;73.40;;;;;;5013256;28;20029;-83
2020/12/14 06:25:12;;;;;;;19.70;11.70;;;4.30;73.50;;;;;;5028954;28;20049;-83
2020/12/14 06:27:38;;;;;;;18.97;11.23;;;4.20;72.90;;;;;;5016954;28;20083;-83
2020/12/14 06:30:33;;;;;;;10.67;6.57;;;4.10;73.10;;;;;;5026382;28;20037;-83
2020/12/14 06:33:12;;;;;;;13.50;7.67;;;4.20;73.70;;;;;;5029085;28;20029;-83
2020/12/14 06:35:53;;;;;;;13.20;8.20;;;4.30;73.40;;;;;;5023758;28;20025;-83
2020/12/14 06:38:36;;;;;;;9.80;6.50;;;4.30;73.40;;;;;;5031014;28;20083;-83
2020/12/14 06:41:04;;;;;;;10.63;6.40;;;4.30;73.20;;;;;;5020420;28;20029;-83
2020/12/14 06:43:34;;;;;;;9.37;6.23;;;4.30;72.80;;;;;;5031136;28;20099;-83
2020/12/14 06:46:03;;;;;;;8.93;5.70;;;4.20;73.10;;;;;;5011575;28;20140;-83
2020/12/14 06:48:39;;;;;;;11.40;5.50;;;4.40;73.30;;;;;;5012301;28;20026;-83
2020/12/14 06:51:07;;;;;;;9.53;6.17;;;4.30;73.00;;;;;;5013303;28;20026;-83
2020/12/14 06:53:44;;;;;;;8.63;4.67;;;4.30;73.00;;;;;;5023182;28;20061;-83
2020/12/14 06:56:14;;;;;;;10.00;6.27;;;4.30;73.50;;;;;;5026071;28;20440;-84
2020/12/14 06:58:45;;;;;;;15.77;7.23;;;4.40;72.70;;;;;;5032562;28;20103;-83
2020/12/14 07:01:40;;;;;;;7.87;4.97;;;4.20;72.60;;;;;;5015147;28;20210;-83
2020/12/14 07:04:27;;;;;;;7.83;4.93;;;4.30;73.40;;;;;;5028754;28;20021;-83
2020/12/14 07:06:52;;;;;;;12.50;7.43;;;4.40;72.90;;;;;;5010903;28;20022;-84
2020/12/14 07:09:38;;;;;;;20.07;10.97;;;4.30;72.40;;;;;;5027704;28;20500;-83
2020/12/14 07:12:10;;;;;;;15.80;8.13;;;4.20;72.80;;;;;;5028809;28;20040;-84
2020/12/14 07:14:45;;;;;;;17.97;9.27;;;4.10;72.70;;;;;;5030170;28;20029;-84
2020/12/14 07:17:22;;;;;;;16.63;8.97;;;4.00;73.10;;;;;;5030409;28;20484;-82
2020/12/14 07:19:49;;;;;;;11.27;6.23;;;4.10;73.30;;;;;;5026414;28;20026;-83
2020/12/14 07:22:18;;;;;;;8.50;5.20;;;4.30;73.10;;;;;;5015148;28;20029;-82
2020/12/14 07:24:49;;;;;;;9.67;6.17;;;4.20;72.70;;;;;;5018214;28;20033;-83
2020/12/14 07:27:14;;;;;;;9.00;5.23;;;4.20;72.70;;;;;;5020305;28;20025;-82
2020/12/14 07:29:40;;;;;;;10.90;6.20;;;4.00;72.70;;;;;;5022521;28;20387;-83
2020/12/14 07:32:06;;;;;;;11.80;6.57;;;4.10;73.10;;;;;;5029736;28;20057;-83
2020/12/14 07:34:32;;;;;;;7.37;4.97;;;4.10;73.00;;;;;;5017694;28;20029;-83
2020/12/14 07:36:58;;;;;;;6.67;4.37;;;4.10;73.10;;;;;;5017440;28;20029;-83
2020/12/14 07:39:24;;;;;;;9.60;6.57;;;4.10;72.80;;;;;;5029870;28;20376;-84
2020/12/14 07:41:50;;;;;;;10.83;5.80;;;4.10;72.80;;;;;;5027747;28;20025;-84
2020/12/14 07:44:16;;;;;;;9.87;6.70;;;4.10;72.70;;;;;;5019866;28;20107;-84
2020/12/14 07:46:42;;;;;;;7.83;5.03;;;4.10;72.60;;;;;;5027117;28;20075;-84
2020/12/14 07:49:08;;;;;;;11.10;6.77;;;4.00;72.70;;;;;;5025846;28;20033;-84
2020/12/14 07:51:36;;;;;;;7.83;5.33;;;4.00;73.20;;;;;;5020663;28;20026;-83
2020/12/14 07:54:08;;;;;;;13.43;9.33;;;4.00;72.80;;;;;;5031370;28;20056;-84
2020/12/14 07:57:07;;;;;;;17.60;10.83;;;4.00;73.10;;;;;;5016649;28;20404;-84
2020/12/14 07:59:33;;;;;;;24.67;13.20;;;4.00;72.90;;;;;;5011972;28;20342;-84
2020/12/14 08:01:59;;;;;;;20.77;12.20;;;3.90;72.70;;;;;;5009157;28;20025;-84
2020/12/14 08:04:34;;;;;;;15.30;9.13;;;3.80;72.70;;;;;;5008431;28;20088;-84
2020/12/14 08:07:01;;;;;;;17.60;10.33;;;3.90;72.80;;;;;;5008859;28;20072;-83
2020/12/14 08:09:33;;;;;;;23.97;13.70;;;3.90;72.80;;;;;;5015224;28;20099;-83
2020/12/14 08:12:00;;;;;;;24.17;15.75;;;4.00;72.90;;;;;;5026531;28;20035;-83
2020/12/14 08:14:26;;;;;;;15.20;8.97;;;4.00;72.80;;;;;;5026895;28;20044;-83
2020/12/14 08:16:52;;;;;;;11.40;7.93;;;3.90;72.80;;;;;;5027248;28;20034;-84
2020/12/14 08:19:20;;;;;;;8.20;5.27;;;4.00;73.10;;;;;;5015555;28;20026;-84
2020/12/14 08:22:10;;;;;;;9.33;6.77;;;4.00;72.70;;;;;;5023185;28;20022;-83
2020/12/14 08:24:37;;;;;;;10.60;5.60;;;4.00;73.10;;;;;;5025291;28;20472;-84
2020/12/14 08:27:14;;;;;;;8.70;5.43;;;4.10;73.10;;;;;;5027028;28;20476;-83
2020/12/14 08:30:01;;;;;;;16.10;8.97;;;4.10;72.90;;;;;;5014070;28;20472;-83
2020/12/14 08:32:27;;;;;;;29.93;16.57;;;4.10;72.80;;;;;;5028907;28;20120;-83
2020/12/14 08:34:52;;;;;;;25.77;13.70;;;3.90;72.50;;;;;;5030291;28;20561;-83
2020/12/14 08:37:19;;;;;;;32.93;13.93;;;3.80;73.10;;;;;;5030190;28;20030;-83
2020/12/14 08:40:00;;;;;;;28.07;11.43;;;4.00;74.40;;;;;;5019455;28;20464;-83
2020/12/14 08:42:29;;;;;;;56.30;21.83;;;4.10;73.10;;;;;;5012257;28;20443;-83
2020/12/14 08:45:13;;;;;;;30.30;12.13;;;4.10;73.20;;;;;;5010960;28;20124;-83
2020/12/14 08:47:42;;;;;;;9.20;6.10;;;4.20;72.90;;;;;;5013218;28;20053;-83
2020/12/14 08:50:11;;;;;;;14.10;9.23;;;4.10;72.80;;;;;;5030606;28;20373;-83
2020/12/14 08:52:37;;;;;;;13.93;7.10;;;4.00;73.00;;;;;;5022380;28;20025;-83
2020/12/14 08:55:03;;;;;;;11.87;7.37;;;4.00;73.10;;;;;;5028935;28;20539;-83
2020/12/14 08:57:30;;;;;;;12.07;7.07;;;4.10;73.80;;;;;;5031213;28;20029;-83
2020/12/14 09:00:09;;;;;;;15.47;7.20;;;4.20;73.80;;;;;;5030756;28;20535;-83
2020/12/14 09:02:36;;;;;;;12.10;8.07;;;4.30;73.50;;;;;;5026851;28;20029;-83
2020/12/14 09:05:19;;;;;;;13.83;6.70;;;4.40;73.10;;;;;;5017221;28;20036;-83
2020/12/14 09:07:46;;;;;;;10.37;6.90;;;4.50;72.90;;;;;;5038048;28;20388;-83
2020/12/14 09:10:22;;;;;;;9.47;5.87;;;4.50;72.80;;;;;;5023750;28;20030;-83
2020/12/14 09:12:49;;;;;;;8.77;5.63;;;4.60;72.80;;;;;;5030414;28;20134;-83
2020/12/14 09:15:14;;;;;;;8.30;5.30;;;4.80;72.60;;;;;;5030276;28;20031;-83
2020/12/14 09:17:42;;;;;;;11.10;5.97;;;5.00;72.30;;;;;;5026162;28;20477;-83
2020/12/14 09:20:09;;;;;;;9.23;6.43;;;5.00;72.10;;;;;;5029942;28;20022;-83
2020/12/14 09:22:36;;;;;;;10.17;6.97;;;5.10;71.50;;;;;;5030543;28;20056;-83
2020/12/14 09:25:02;;;;;;;9.17;6.70;;;5.20;71.40;;;;;;5031980;28;20041;-83
2020/12/14 09:27:28;;;;;;;6.17;4.47;;;5.40;71.50;;;;;;5029394;28;20052;-83
2020/12/14 09:29:54;;;;;;;7.10;5.07;;;5.70;71.50;;;;;;5025502;28;20025;-83
2020/12/14 09:32:19;;;;;;;7.10;5.50;;;5.90;70.70;;;;;;5029264;28;20030;-83
2020/12/14 09:34:45;;;;;;;7.23;5.47;;;6.10;70.10;;;;;;5014409;28;20025;-83
2020/12/14 09:37:11;;;;;;;9.40;5.90;;;6.20;69.60;;;;;;5010151;28;20084;-83
2020/12/14 09:39:39;;;;;;;9.50;5.53;;;6.30;69.40;;;;;;5011405;28;20026;-84
2020/12/14 09:42:05;;;;;;;9.80;5.70;;;6.40;69.30;;;;;;5041627;28;20046;-83
2020/12/14 09:44:31;;;;;;;8.73;5.50;;;6.50;69.00;;;;;;5011029;28;20025;-83
2020/12/14 09:47:00;;;;;;;7.77;5.40;;;6.50;68.90;;;;;;5028396;28;20033;-83
2020/12/14 09:49:26;;;;;;;6.50;4.40;;;6.60;68.50;;;;;;5024236;28;20032;-83
2020/12/14 09:51:52;;;;;;;7.30;4.93;;;6.70;68.10;;;;;;5018093;28;20026;-83
2020/12/14 09:54:17;;;;;;;7.50;3.83;;;6.80;68.30;;;;;;5011871;28;20033;-84
2020/12/14 09:56:43;;;;;;;7.83;4.30;;;7.00;67.50;;;;;;5010015;28;20304;-84
2020/12/14 09:59:09;;;;;;;5.50;4.03;;;7.10;67.20;;;;;;5010791;28;20022;-84
2020/12/14 10:01:35;;;;;;;7.40;4.77;;;7.10;66.80;;;;;;5012942;28;20022;-83
2020/12/14 10:04:01;;;;;;;6.00;4.77;;;7.30;67.00;;;;;;5030070;28;20030;-84
2020/12/14 10:06:27;;;;;;;10.50;5.20;;;7.60;66.40;;;;;;5024500;28;20083;-83
2020/12/14 10:08:53;;;;;;;6.90;4.43;;;7.80;65.60;;;;;;5030131;28;20025;-81
2020/12/14 10:11:24;;;;;;;6.23;4.40;;;7.90;65.20;;;;;;5024217;28;20113;-83
2020/12/14 10:13:50;;;;;;;8.10;4.30;;;8.10;65.10;;;;;;5029895;28;20029;-83
2020/12/14 10:16:15;;;;;;;6.47;3.93;;;8.30;64.70;;;;;;5019755;28;20030;-82
2020/12/14 10:18:41;;;;;;;8.70;3.60;;;8.40;64.10;;;;;;5028019;28;20030;-83
2020/12/14 10:21:08;;;;;;;6.50;3.03;;;8.60;63.90;;;;;;5020741;28;20143;-82
2020/12/14 10:23:34;;;;;;;4.80;2.57;;;8.80;63.10;;;;;;5009839;28;20087;-83
2020/12/14 10:26:00;;;;;;;3.90;2.67;;;8.90;62.30;;;;;;5016934;28;20112;-83
2020/12/14 10:28:26;;;;;;;4.80;3.20;;;9.00;61.70;;;;;;5028508;28;20069;-83
2020/12/14 10:30:51;;;;;;;4.07;2.87;;;9.20;61.10;;;;;;5029005;28;20057;-82
2020/12/14 10:33:18;;;;;;;4.27;3.07;;;9.60;60.10;;;;;;5019387;28;20516;-83
2020/12/14 10:35:45;;;;;;;7.03;3.77;;;9.40;59.50;;;;;;5027392;28;20503;-83
2020/12/14 10:38:14;;;;;;;3.63;2.90;;;9.40;59.00;;;;;;5028825;28;20056;-83
2020/12/14 10:40:40;;;;;;;3.33;2.33;;;9.40;58.50;;;;;;5023981;28;20112;-83
2020/12/14 10:43:06;;;;;;;4.80;2.77;;;9.20;58.60;;;;;;5023040;28;20072;-83
2020/12/14 10:45:31;;;;;;;12.47;2.90;;;9.20;58.70;;;;;;5028767;28;20069;-83
2020/12/14 10:47:57;;;;;;;5.60;2.57;;;9.30;59.10;;;;;;5030445;28;20026;-83
2020/12/14 10:50:24;;;;;;;3.97;2.70;;;9.50;59.10;;;;;;5022015;28;20026;-83
2020/12/14 10:52:50;;;;;;;3.53;2.37;;;9.60;59.20;;;;;;5028849;28;20036;-82
2020/12/14 10:55:18;;;;;;;3.70;2.60;;;9.80;59.10;;;;;;5022259;28;20026;-83
2020/12/14 10:57:44;;;;;;;6.33;2.57;;;9.90;58.70;;;;;;5009254;28;20069;-83
2020/12/14 11:00:11;;;;;;;4.03;2.50;;;9.80;57.70;;;;;;5013245;28;20116;-82
2020/12/14 11:02:39;;;;;;;3.70;2.50;;;9.80;57.60;;;;;;5024313;28;20021;-82
2020/12/14 11:05:09;;;;;;;5.67;2.80;;;9.80;57.50;;;;;;5019404;28;20096;-84
2020/12/14 11:07:36;;;;;;;6.40;2.63;;;9.90;57.20;;;;;;5018233;28;20037;-83
2020/12/14 11:10:04;;;;;;;5.17;3.10;;;9.90;57.50;;;;;;5026644;28;20038;-84
2020/12/14 11:12:30;;;;;;;4.87;3.00;;;9.90;57.40;;;;;;5023733;28;20032;-83
2020/12/14 11:14:56;;;;;;;5.37;2.43;;;10.00;57.50;;;;;;5027896;28;20029;-84
2020/12/14 11:17:22;;;;;;;3.63;2.40;;;10.10;57.60;;;;;;5017295;28;20091;-83
2020/12/14 11:19:48;;;;;;;3.30;2.20;;;10.10;57.50;;;;;;5028928;28;20025;-84
2020/12/14 11:22:13;;;;;;;4.80;2.70;;;10.20;57.50;;;;;;5031488;28;20105;-83
2020/12/14 11:24:39;;;;;;;6.20;3.63;;;10.20;57.30;;;;;;5023068;28;20037;-84
2020/12/14 11:27:05;;;;;;;5.93;3.67;;;10.40;57.20;;;;;;5024661;28;20455;-84
2020/12/14 11:29:31;;;;;;;11.00;3.77;;;10.30;57.20;;;;;;5030055;28;20033;-84
2020/12/14 11:31:57;;;;;;;5.60;2.97;;;10.30;57.40;;;;;;5026349;28;20026;-84
2020/12/14 11:34:23;;;;;;;3.33;2.57;;;10.30;57.30;;;;;;5019725;28;20065;-83
2020/12/14 11:36:49;;;;;;;5.43;3.13;;;10.30;57.20;;;;;;5011749;28;20057;-83
2020/12/14 11:39:15;;;;;;;4.53;2.50;;;10.50;57.20;;;;;;5026080;28;20086;-83
2020/12/14 11:41:44;;;;;;;5.97;1.80;;;10.50;56.80;;;;;;5022063;28;20022;-84
2020/12/14 11:44:10;;;;;;;2.93;1.60;;;10.50;55.60;;;;;;5021188;28;20025;-84
2020/12/14 11:46:36;;;;;;;2.80;1.60;;;10.20;55.10;;;;;;5026045;28;20028;-84
2020/12/14 11:49:01;;;;;;;3.70;2.00;;;10.20;54.70;;;;;;5013075;28;20030;-84
2020/12/14 11:51:27;;;;;;;3.83;1.90;;;10.00;54.50;;;;;;5028369;28;20025;-83
2020/12/14 11:53:53;;;;;;;2.43;1.70;;;10.00;54.60;;;;;;5019310;28;20032;-84
2020/12/14 11:56:18;;;;;;;2.93;1.70;;;10.10;54.60;;;;;;5025617;28;20025;-84
2020/12/14 11:58:44;;;;;;;6.30;1.80;;;10.00;54.50;;;;;;5022763;28;20067;-83
2020/12/14 12:01:10;;;;;;;25.20;4.23;;;10.00;54.70;;;;;;5020114;28;20025;-84
2020/12/14 12:03:35;;;;;;;2.60;1.60;;;10.10;54.90;;;;;;5020964;28;20048;-84
2020/12/14 12:06:01;;;;;;;2.63;1.70;;;10.10;54.90;;;;;;5026275;28;20512;-83
2020/12/14 12:08:27;;;;;;;4.30;2.07;;;10.00;54.50;;;;;;5028351;28;20034;-83
2020/12/14 12:10:53;;;;;;;4.67;1.70;;;9.90;54.00;;;;;;5026119;28;20051;-83
2020/12/14 12:13:19;;;;;;;3.63;1.93;;;9.70;54.10;;;;;;5027199;28;20040;-83
2020/12/14 12:15:45;;;;;;;6.13;1.97;;;9.70;54.40;;;;;;5026286;28;20480;-83
2020/12/14 12:18:11;;;;;;;5.57;2.03;;;9.90;54.80;;;;;;5026396;28;20025;-83
2020/12/14 12:20:37;;;;;;;4.37;2.00;;;9.80;54.30;;;;;;5026397;28;20040;-83
2020/12/14 12:23:03;;;;;;;8.03;2.67;;;9.80;54.50;;;;;;5013775;28;20017;-83
2020/12/14 12:25:29;;;;;;;5.20;2.60;;;9.90;54.30;;;;;;5027428;28;20041;-83
2020/12/14 12:27:55;;;;;;;3.57;2.30;;;10.00;54.60;;;;;;5029219;28;20098;-83
2020/12/14 12:30:21;;;;;;;3.57;1.80;;;10.00;54.30;;;;;;5027552;28;20036;-84
2020/12/14 12:32:47;;;;;;;5.10;1.93;;;10.00;55.20;;;;;;5009666;28;20092;-83
2020/12/14 12:35:13;;;;;;;3.03;2.03;;;10.00;54.60;;;;;;5011970;28;20033;-83
2020/12/14 12:37:39;;;;;;;4.10;2.60;;;10.20;55.00;;;;;;5025068;28;20021;-83
2020/12/14 12:40:08;;;;;;;8.27;2.80;;;10.20;55.10;;;;;;5027232;28;20384;-83
2020/12/14 12:42:34;;;;;;;2.97;1.93;;;10.30;55.80;;;;;;5024846;28;20030;-83
2020/12/14 12:45:00;;;;;;;11.50;2.30;;;10.20;55.00;;;;;;5027203;28;20151;-84
2020/12/14 12:47:26;;;;;;;5.57;1.90;;;10.30;55.20;;;;;;5027266;28;20037;-83
2020/12/14 12:49:52;;;;;;;7.43;2.67;;;10.20;54.70;;;;;;5024665;28;20072;-83
2020/12/14 12:52:20;;;;;;;3.53;2.07;;;10.10;54.70;;;;;;5020730;28;20040;-83